Accueil
METAR-TAF:

METAR-TAF

Aéroports :

Kütahya, Turquie

latitude: 39-06-41N, longitude: 30-07-48E, altitude: 1013 m

Observation

Le bulletin a été fait il y a 12 heures et 59 minutes, à 10:50 UTC
Vent 2 kt de direction variable
Température -2°C
Humidité 74%
Pression 1027 hPa
Visibilité: 5000 m
brume

METAR: LTBZ 261050Z VRB02KT 5000 BR NSC M02/M06 Q1027

Heure: 02:49 (23:49 UTC)

Prévision

Le bulletin a été fait il y a 1 heure et 9 minutes, à 22:40 UTC
Prévision valable du 27 à 00 UTC au 27 à 09 UTC
Vent 2 kt de direction variable
Visibilité 10 km ou plus
pas de nuages en-dessous de 1500 mètres et pas de cumulonimbus.
Evoluant progressivement
du 27 à 00 UTC au 27 à 03 UTC
Nuages épars à une hauteur de 3500 ft
Nuages fragmentés à une hauteur de 10000 ft

TAF: LTBZ 262240Z 2700/2709 VRB02KT CAVOK BECMG 2700/2703 SCT035 BKN100

Observations et prévisions météorologiques de plus de 4000 aéroports (messages METAR et TAF).

Les stations disponibles sont représentées par des disques jaunes et rouges sur la carte.

Passer la souris dessus pour voir le nom de la station.

Cliquer dessus pour voir les observations et prévisions météorologiques.

Pour changer de carte: cliquez sur les boutons verts avec une croix noire pour zoomer, sur le bouton vert avec un tiret pour effectuer un zoom arrière, ou sur les flèches vertes pour les cartes adjacentes.


METAR-TAF: